Map

Track Data

SID SEASON NUMBER BASIN SUBBASIN NAME ISO_TIME NATURE LAT LON WMO_WIND WMO_PRES WMO_AGENCY TRACK_TYPE DIST2LAND LANDFALL IFLAG USA_AGENCY USA_ATCF_ID USA_LAT USA_LON USA_RECORD USA_STATUS USA_WIND USA_PRES USA_SSHS USA_R34_NE USA_R34_SE USA_R34_SW USA_R34_NW USA_R50_NE USA_R50_SE USA_R50_SW USA_R50_NW USA_R64_NE USA_R64_SE USA_R64_SW USA_R64_NW USA_POCI USA_ROCI USA_RMW USA_EYE TOKYO_LAT TOKYO_LON TOKYO_GRADE TOKYO_WIND TOKYO_PRES TOKYO_R50_DIR TOKYO_R50_LONG TOKYO_R50_SHORT TOKYO_R30_DIR TOKYO_R30_LONG TOKYO_R30_SHORT TOKYO_LAND CMA_LAT CMA_LON CMA_CAT CMA_WIND CMA_PRES HKO_LAT HKO_LON HKO_CAT HKO_WIND HKO_PRES NEWDELHI_LAT NEWDELHI_LON NEWDELHI_GRADE NEWDELHI_WIND NEWDELHI_PRES NEWDELHI_CI NEWDELHI_DP NEWDELHI_POCI REUNION_LAT REUNION_LON REUNION_TYPE REUNION_WIND REUNION_PRES REUNION_TNUM REUNION_CI REUNION_RMW REUNION_R34_NE REUNION_R34_SE REUNION_R34_SW REUNION_R34_NW REUNION_R50_NE REUNION_R50_SE REUNION_R50_SW REUNION_R50_NW REUNION_R64_NE REUNION_R64_SE REUNION_R64_SW REUNION_R64_NW BOM_LAT BOM_LON BOM_TYPE BOM_WIND BOM_PRES BOM_TNUM BOM_CI BOM_RMW BOM_R34_NE BOM_R34_SE BOM_R34_SW BOM_R34_NW BOM_R50_NE BOM_R50_SE BOM_R50_SW BOM_R50_NW BOM_R64_NE BOM_R64_SE BOM_R64_SW BOM_R64_NW BOM_ROCI BOM_POCI BOM_EYE BOM_POS_METHOD BOM_PRES_METHOD NADI_LAT NADI_LON NADI_CAT NADI_WIND NADI_PRES WELLINGTON_LAT WELLINGTON_LON WELLINGTON_WIND WELLINGTON_PRES DS824_LAT DS824_LON DS824_STAGE DS824_WIND DS824_PRES TD9636_LAT TD9636_LON TD9636_STAGE TD9636_WIND TD9636_PRES TD9635_LAT TD9635_LON TD9635_WIND TD9635_PRES TD9635_ROCI NEUMANN_LAT NEUMANN_LON NEUMANN_CLASS NEUMANN_WIND NEUMANN_PRES MLC_LAT MLC_LON MLC_CLASS MLC_WIND MLC_PRES USA_GUST BOM_GUST BOM_GUST_PER REUNION_GUST REUNION_GUST_PER USA_SEAHGT USA_SEARAD_NE USA_SEARAD_SE USA_SEARAD_SW USA_SEARAD_NW STORM_SPEED STORM_DIR
1941074S24041 1941 17 SI MM NOT_NAMED 1941-03-15 06:00:00 NR -24.1000 40.5000 reunion main 318 257 _____O________ -1 -24.1000 40.5000 99 9.90000 11 93
1941074S24041 1941 17 SI MM NOT_NAMED 1941-03-15 09:00:00 NR -24.1237 41.0906 main 257 208 _____P________ -1 -24.1237 41.0906 99 11 93
1941074S24041 1941 17 SI MM NOT_NAMED 1941-03-15 12:00:00 NR -24.1484 41.6788 main 198 152 _____P________ -1 -24.1484 41.6788 99 11 93
1941074S24041 1941 17 SI MM NOT_NAMED 1941-03-15 15:00:00 NR -24.1772 42.2616 main 142 142 _____P________ -1 -24.1772 42.2616 99 6 94
1941074S24041 1941 17 SI MM NOT_NAMED 1941-03-15 18:00:00 NR -24.1908 42.3490 main 142 91 _____P____O___ -1 -24.2135 42.8362 99 -24.1000 40.4000 2 5 96
1941074S24041 1941 17 SI MM NOT_NAMED 1941-03-15 21:00:00 NR -24.2324 42.8409 main 91 10 _____P____P___ -1 -24.2605 43.4000 99 -24.1761 41.7226 2 13 96
1941074S24041 1941 17 SI MM NOT_NAMED 1941-03-16 00:00:00 TS -24.3194 43.7166 main 10 0 _____P___OP___ -1 -24.3217 43.9502 99 -24.5000 45.0000 TC 35 -24.2562 42.9772 2 15 98
1941074S24041 1941 17 SI MM NOT_NAMED 1941-03-16 03:00:00 TS -24.4563 44.5203 main 0 0 _____P___PP___ -1 -24.4004 44.4844 99 -24.7652 45.4471 TC 35 -24.3578 44.0929 2 14 103
1941074S24041 1941 17 SI MM NOT_NAMED 1941-03-16 06:00:00 TS -24.6364 45.2455 reunion main 0 0 _____O___OO___ -1 -24.5000 45.0000 99 9.90000 -25.0000 45.9000 TC 35 -24.5000 45.0000 2 13 107
1941074S24041 1941 17 SI MM NOT_NAMED 1941-03-16 09:00:00 TS -24.8321 45.8359 main 0 0 _____P___PP___ -1 -24.6220 45.4953 99 -25.1799 46.3576 TC 35 -24.6943 45.6549 2 10 110
1941074S24041 1941 17 SI MM NOT_NAMED 1941-03-16 12:00:00 TS -24.9918 46.2961 main 0 0 _____P___OP___ -1 -24.7593 45.9713 99 -25.3000 46.8000 TC 35 -24.9162 46.1170 2 8 111
1941074S24041 1941 17 SI MM NOT_NAMED 1941-03-16 15:00:00 TS -25.1352 46.7001 main 0 0 _____P___PP___ -1 -24.9031 46.4296 99 -25.3723 47.2001 TC 35 -25.1302 46.4706 2 8 110
1941074S24041 1941 17 SI MM NOT_NAMED 1941-03-16 18:00:00 TS -25.2481 47.0905 main 15 15 _____P___OO___ -1 -25.0442 46.8716 99 -25.4000 47.6000 TC 35 -25.3000 46.8000 2 8 104
1941074S24041 1941 17 SI MM NOT_NAMED 1941-03-16 21:00:00 TS -25.3265 47.5285 main 52 52 _____P___PP___ -1 -25.1735 47.2986 99 -25.4150 48.0500 TC 35 -25.3912 47.2368 2 8 99
1941074S24041 1941 17 SI MM NOT_NAMED 1941-03-17 00:00:00 TS -25.3713 47.9591 main 100 100 _____P___OP___ -1 -25.2820 47.7116 99 -25.4000 48.5000 TC 35 -25.4320 47.6656 2 8 94
1941074S24041 1941 17 SI MM NOT_NAMED 1941-03-17 03:00:00 TS -25.3857 48.3686 main 138 138 _____P___PP___ -1 -25.3605 48.1118 99 -25.3648 48.9075 TC 35 -25.4318 48.0865 2 7 90
1941074S24041 1941 17 SI MM NOT_NAMED 1941-03-17 06:00:00 TS -25.3667 48.7667 reunion main 176 176 _____O___OO___ -1 -25.4000 48.5000 99 9.90000 -25.3000 49.3000 TC 35 -25.4000 48.5000 2 7 84
1941074S24041 1941 17 SI MM NOT_NAMED 1941-03-17 09:00:00 TS -25.3070 49.1682 main 211 211 _____P___PP___ -1 -25.3444 48.8701 99 -25.2150 49.7150 TC 35 -25.3617 48.9196 2 7 78
1941074S24041 1941 17 SI MM NOT_NAMED 1941-03-17 12:00:00 TS -25.2143 49.5511 main 244 244 _____P___OP___ -1 -25.2481 49.2230 99 -25.1000 50.1000 TC 35 -25.2948 49.3302 2 7 72
1941074S24041 1941 17 SI MM NOT_NAMED 1941-03-17 15:00:00 TS -25.0929 49.8991 main 270 270 _____P___PP___ -1 -25.1235 49.5642 99 -24.9498 50.4075 TC 35 -25.2055 49.7257 2 7 68
1941074S24041 1941 17 SI MM NOT_NAMED 1941-03-17 18:00:00 TS -24.9609 50.2332 main 294 294 _____P___OO___ -1 -24.9827 49.8995 99 -24.8000 50.7000 TC 35 -25.1000 50.1000 2 7 67
1941074S24041 1941 17 SI MM NOT_NAMED 1941-03-17 21:00:00 TS -24.8318 50.5667 main 326 326 _____P___PP___ -1 -24.8380 50.2348 99 -24.6849 51.0350 TC 35 -24.9724 50.4305 2 7 68
1941074S24041 1941 17 SI MM NOT_NAMED 1941-03-18 00:00:00 TS -24.7117 50.9062 main 352 352 _____P___OP___ -1 -24.7012 50.5759 99 -24.6000 51.4000 TC 35 -24.8340 50.7428 2 7 70
1941074S24041 1941 17 SI MM NOT_NAMED 1941-03-18 03:00:00 TS -24.6077 51.2575 main 389 389 _____P___PP___ -1 -24.5846 50.9289 99 -24.5349 51.7850 TC 35 -24.7036 51.0587 2 7 75
1941074S24041 1941 17 SI MM NOT_NAMED 1941-03-18 06:00:00 TS -24.5333 51.6333 reunion main 414 414 _____O___OO___ -1 -24.5000 51.3000 99 9.90000 -24.5000 52.2000 TC 35 -24.6000 51.4000 2 7 81
1941074S24041 1941 17 SI MM NOT_NAMED 1941-03-18 09:00:00 TS -24.4981 52.0622 main 463 458 _____P___PP___ -1 -24.4833 51.7477 99 -24.4849 52.6425 TC 35 -24.5259 51.7963 2 8 87
1941074S24041 1941 17 SI MM NOT_NAMED 1941-03-18 12:00:00 TS -24.4918 52.5124 main 458 433 _____P___OP___ -1 -24.4930 52.2170 99 -24.5000 53.1000 TC 35 -24.4825 52.2203 2 8 91
1941074S24041 1941 17 SI MM NOT_NAMED 1941-03-18 15:00:00 TS -24.5085 52.9714 main 428 412 _____P___PP___ -1 -24.5254 52.6977 99 -24.5274 53.5576 TC 35 -24.4728 52.6590 2 8 95
1941074S24041 1941 17 SI MM NOT_NAMED 1941-03-18 18:00:00 TS -24.5551 53.3742 main 416 403 _____P___OO___ -1 -24.5766 53.1791 99 -24.6000 54.0000 TC 35 -24.5000 53.1000 2 7 100
1941074S24041 1941 17 SI MM NOT_NAMED 1941-03-18 21:00:00 TS -24.6299 53.7555 main 399 399 _____P___PP___ -1 -24.6430 53.6507 99 -24.7327 54.4097 TC 35 -24.5653 53.5332 2 7 103
1941074S24041 1941 17 SI MM NOT_NAMED 1941-03-19 00:00:00 TS -24.7209 54.1356 main 399 395 _____P___OP___ -1 -24.7213 54.1020 99 -24.9000 54.8000 TC 35 -24.6607 53.9590 2 7 104
1941074S24041 1941 17 SI MM NOT_NAMED 1941-03-19 03:00:00 NR -24.7973 54.4748 main 396 391 _____P____P___ -1 -24.8081 54.5220 99 TC -24.7757 54.3804 2 7 105
1941074S24041 1941 17 SI MM NOT_NAMED 1941-03-19 06:00:00 NR -24.9000 54.8800 reunion main 397 394 _____O____O___ -1 -24.9000 54.9000 99 9.90000 -24.9000 54.8000 2 7 106
1941074S24041 1941 17 SI MM NOT_NAMED 1941-03-19 09:00:00 NR -24.9945 55.2281 main 404 402 _____P________ -1 -24.9945 55.2281 99 2 6 109
1941074S24041 1941 17 SI MM NOT_NAMED 1941-03-19 12:00:00 NR -25.0910 55.5099 main 413 413 _____P________ -1 -25.0910 55.5099 99 2 5 112
1941074S24041 1941 17 SI MM NOT_NAMED 1941-03-19 15:00:00 NR -25.1894 55.7520 main 425 425 _____P________ -1 -25.1894 55.7520 99 2 5 116
1941074S24041 1941 17 SI MM NOT_NAMED 1941-03-19 18:00:00 NR -25.2894 55.9611 main 437 437 _____P________ -1 -25.2894 55.9611 99 4 120
1941074S24041 1941 17 SI MM NOT_NAMED 1941-03-19 21:00:00 NR -25.3909 56.1438 main 449 449 _____P________ -1 -25.3909 56.1438 99 4 123
1941074S24041 1941 17 SI MM NOT_NAMED 1941-03-20 00:00:00 NR -25.4933 56.3068 main 463 463 _____P________ -1 -25.4933 56.3068 99 3 126
1941074S24041 1941 17 SI MM NOT_NAMED 1941-03-20 03:00:00 NR -25.5965 56.4566 main 478 478 _____P________ -1 -25.5965 56.4566 99 3 128
1941074S24041 1941 17 SI MM NOT_NAMED 1941-03-20 06:00:00 NR -25.7000 56.6000 reunion main 491 _____O________ -1 -25.7000 56.6000 99 9.90000 3 128

About IBTrACS Database

This database is a web-friendly format of International Best Track Archive for Climate Stewardship (IBTrACS), a global best track data archive curated by NOAA dating back to 1842.

Updated: 2021-12-03